Time;durP1;ratioP1;P1;durP2;ratioP2;P2;SDS_P1;SDS_P2;PMS_P1;PMS_P2;Temp;Humidity;BMP_temperature;BMP_pressure;BME280_temperature;BME280_humidity;BME280_pressure;Samples;Min_cycle;Max_cycle;Signal;HPM_P1;HPM_P2
2023/02/05 00:00:29;;;;;;;0.43;0.43;;;;;;;1.43;50.61;101327.69;4439545;32;34772;-89
2023/02/05 00:02:58;;;;;;;0.00;0.00;;;;;;;1.51;50.33;101329.56;4447922;32;33654;-89
2023/02/05 00:05:27;;;;;;;0.80;0.80;;;;;;;1.53;50.39;101337.41;4442015;32;32229;-89
2023/02/05 00:07:54;;;;;;;0.00;0.00;;;;;;;1.67;50.17;101335.94;4428810;32;33908;-89
2023/02/05 00:10:24;;;;;;;0.00;0.00;;;;;;;1.67;50.27;101329.84;4440444;32;33596;-89
2023/02/05 00:12:52;;;;;;;0.52;0.52;;;;;;;1.65;50.10;101340.22;4448255;32;33961;-89
2023/02/05 00:15:21;;;;;;;0.00;0.00;;;;;;;1.53;50.38;101353.03;4449786;32;33106;-89
2023/02/05 00:17:50;;;;;;;0.00;0.00;;;;;;;1.55;50.56;101340.91;4434392;32;223004;-89
2023/02/05 00:20:18;;;;;;;0.00;0.00;;;;;;;1.54;50.28;101333.97;4441785;32;33972;-89
2023/02/05 00:22:47;;;;;;;0.73;0.45;;;;;;;1.50;51.06;101343.44;4442033;32;33600;-89
2023/02/05 00:25:15;;;;;;;0.00;0.00;;;;;;;1.54;50.95;101346.97;4435967;32;33439;-89
2023/02/05 00:27:43;;;;;;;0.00;0.00;;;;;;;1.56;50.69;101341.78;4448732;32;34550;-90
2023/02/05 00:30:13;;;;;;;0.00;0.00;;;;;;;1.48;51.27;101354.69;4437115;32;32959;-89
2023/02/05 00:32:41;;;;;;;0.00;0.00;;;;;;;1.56;50.92;101342.66;4422628;32;33148;-89
2023/02/05 00:35:09;;;;;;;0.00;0.00;;;;;;;1.55;51.20;101353.94;4447243;32;33132;-88
2023/02/05 00:37:38;;;;;;;0.10;0.10;;;;;;;1.74;50.63;101350.78;4448442;32;33636;-88
2023/02/05 00:40:07;;;;;;;0.00;0.00;;;;;;;1.71;51.01;101361.19;4452120;32;34454;-88
2023/02/05 00:42:39;;;;;;;0.00;0.00;;;;;;;1.83;50.43;101363.09;4451018;32;33271;-89
2023/02/05 00:45:08;;;;;;;0.00;0.00;;;;;;;1.63;51.10;101365.37;4451576;32;32827;-89
2023/02/05 00:47:38;;;;;;;0.00;0.00;;;;;;;1.84;50.49;101363.97;4451615;32;34621;-88
2023/02/05 00:50:08;;;;;;;0.00;0.00;;;;;;;1.98;49.82;101365.06;4448892;32;32866;-88
2023/02/05 00:52:38;;;;;;;0.00;0.00;;;;;;;1.83;50.43;101377.84;4435970;32;32631;-88
2023/02/05 00:55:06;;;;;;;0.00;0.00;;;;;;;1.78;50.31;101380.38;4447811;32;32325;-87
2023/02/05 00:57:34;;;;;;;0.47;0.47;;;;;;;1.42;51.54;101375.38;4440454;32;33562;-87
2023/02/05 01:00:03;;;;;;;0.00;0.00;;;;;;;1.88;50.27;101377.06;4427199;32;33339;-86
2023/02/05 01:02:30;;;;;;;0.00;0.00;;;;;;;1.67;50.60;101377.59;4435302;32;33963;-85
2023/02/05 01:04:58;;;;;;;0.00;0.00;;;;;;;2.12;49.23;101381.81;4461079;32;34254;-85
2023/02/05 01:07:27;;;;;;;0.00;0.00;;;;;;;2.01;49.56;101383.38;4458695;32;33867;-88
2023/02/05 01:09:55;;;;;;;0.75;0.40;;;;;;;1.91;50.18;101379.75;4436388;32;34403;-88
2023/02/05 01:12:23;;;;;;;0.50;0.50;;;;;;;2.16;49.15;101385.34;4461920;32;34019;-88
2023/02/05 01:14:53;;;;;;;0.00;0.00;;;;;;;1.97;49.44;101382.44;4446915;32;33870;-87
2023/02/05 01:17:20;;;;;;;0.00;0.00;;;;;;;1.67;50.44;101389.75;4450092;32;32927;-87
2023/02/05 01:19:52;;;;;;;0.00;0.00;;;;;;;2.10;49.33;101388.75;4463943;32;33901;-87
2023/02/05 01:22:23;;;;;;;0.00;0.00;;;;;;;1.97;49.19;101390.25;4452596;32;33921;-87
2023/02/05 01:24:51;;;;;;;0.00;0.00;;;;;;;2.00;49.07;101389.44;4472498;31;34046;-87
2023/02/05 01:27:19;;;;;;;0.00;0.00;;;;;;;1.86;49.57;101389.22;4447681;31;34568;-87
2023/02/05 01:29:50;;;;;;;0.00;0.00;;;;;;;1.98;49.13;101385.91;4449498;32;36115;-86
2023/02/05 01:32:21;;;;;;;2.75;1.17;;;;;;;2.05;49.17;101385.19;4449836;32;32821;-88
2023/02/05 01:34:49;;;;;;;0.00;0.00;;;;;;;2.02;49.23;101380.78;4444124;32;32511;-87
2023/02/05 01:37:17;;;;;;;0.00;0.00;;;;;;;2.10;48.69;101378.31;4458478;32;34540;-87
2023/02/05 01:39:45;;;;;;;0.00;0.00;;;;;;;1.93;48.95;101375.41;4450675;31;33047;-87
2023/02/05 01:42:21;;;;;;;0.37;0.37;;;;;;;1.94;48.89;101369.34;4464455;31;32925;-86
2023/02/05 01:45:20;;;;;;;0.00;0.00;;;;;;;1.83;49.20;101375.25;4449327;31;32780;-87
2023/02/05 01:47:49;;;;;;;0.00;0.00;;;;;;;1.64;49.61;101372.31;4460924;31;32920;-87
2023/02/05 01:50:23;;;;;;;0.00;0.00;;;;;;;1.57;50.09;101359.16;4458498;32;33995;-87
2023/02/05 01:52:53;;;;;;;0.00;0.00;;;;;;;1.66;49.47;101362.81;4454015;32;35545;-87
2023/02/05 01:55:21;;;;;;;1.08;0.88;;;;;;;1.71;49.51;101369.00;4462965;32;33138;-87
2023/02/05 01:57:49;;;;;;;0.00;0.00;;;;;;;1.62;49.77;101362.75;4462816;31;34500;-87
2023/02/05 02:00:19;;;;;;;0.00;0.00;;;;;;;1.78;49.29;101364.75;4469519;31;33389;-87
2023/02/05 02:02:49;;;;;;;0.00;0.00;;;;;;;1.26;51.02;101369.00;4465485;31;34519;-86
2023/02/05 02:05:18;;;;;;;0.00;0.00;;;;;;;1.81;49.56;101384.78;4469048;32;33256;-87
2023/02/05 02:07:48;;;;;;;0.00;0.00;;;;;;;1.84;49.50;101385.69;4451299;32;32698;-87
2023/02/05 02:10:18;;;;;;;0.00;0.00;;;;;;;1.78;49.33;101383.84;4445579;32;33069;-87
2023/02/05 02:12:48;;;;;;;0.00;0.00;;;;;;;1.81;49.12;101382.16;4447249;31;33016;-85
2023/02/05 02:15:18;;;;;;;0.00;0.00;;;;;;;1.65;50.04;101386.22;4475805;31;35215;-85
2023/02/05 02:17:54;;;;;;;0.00;0.00;;;;;;;2.04;48.86;101386.00;4451859;32;32856;-85
2023/02/05 02:20:27;;;;;;;0.00;0.00;;;;;;;2.09;48.17;101384.38;4478539;32;33685;-85
2023/02/05 02:23:20;;;;;;;0.00;0.00;;;;;;;2.26;48.10;101390.72;4476145;32;33788;-85
2023/02/05 02:26:27;;;;;;;0.37;0.37;;;;;;;1.90;48.80;101392.72;4475985;31;34084;-86
2023/02/05 02:28:59;;;;;;;0.45;0.45;;;;;;;1.94;48.84;101389.31;4465169;31;32540;-86
2023/02/05 02:31:31;;;;;;;0.13;0.10;;;;;;;1.91;48.46;101384.06;4472957;31;33925;-86
2023/02/05 02:34:15;;;;;;;0.00;0.00;;;;;;;1.95;48.71;101388.50;4451542;31;32768;-86
2023/02/05 02:37:11;;;;;;;0.00;0.00;;;;;;;2.02;48.28;101390.31;4448540;31;33978;-86
2023/02/05 02:39:50;;;;;;;0.00;0.00;;;;;;;1.71;48.95;101387.22;4472687;32;33480;-86
2023/02/05 02:42:23;;;;;;;0.00;0.00;;;;;;;1.81;49.10;101397.78;4459001;31;32753;-84
2023/02/05 02:44:59;;;;;;;1.75;0.68;;;;;;;1.92;49.04;101404.06;4458968;31;34550;-86
2023/02/05 02:47:35;;;;;;;0.00;0.00;;;;;;;1.66;49.97;101395.78;4477447;31;33528;-85
2023/02/05 02:50:16;;;;;;;0.00;0.00;;;;;;;1.92;48.99;101402.31;4437172;31;32396;-85
2023/02/05 02:52:46;;;;;;;6.72;0.57;;;;;;;1.93;49.28;101403.19;4460278;31;34728;-85
2023/02/05 02:55:16;;;;;;;0.00;0.00;;;;;;;1.68;49.67;101405.38;4453837;31;33214;-85
2023/02/05 02:57:47;;;;;;;0.00;0.00;;;;;;;1.59;50.11;101409.53;4437315;31;34967;-85
2023/02/05 03:00:20;;;;;;;0.00;0.00;;;;;;;1.50;50.73;101415.44;4465905;31;33101;-84
2023/02/05 03:02:49;;;;;;;0.00;0.00;;;;;;;1.28;50.99;101420.25;4468404;31;33382;-84
2023/02/05 03:05:21;;;;;;;0.00;0.00;;;;;;;1.22;51.59;101414.91;4476935;31;34501;-84
2023/02/05 03:08:03;;;;;;;0.00;0.00;;;;;;;1.56;50.74;101430.28;4463909;32;32912;-84
2023/02/05 03:10:37;;;;;;;0.00;0.00;;;;;;;1.65;50.43;101420.06;4471457;31;33653;-86
2023/02/05 03:13:08;;;;;;;0.00;0.00;;;;;;;1.81;49.41;101421.25;4476088;31;35476;-86
2023/02/05 03:15:43;;;;;;;0.20;0.20;;;;;;;1.76;49.57;101428.97;4452370;31;33092;-86
2023/02/05 03:18:13;;;;;;;0.00;0.00;;;;;;;1.61;49.68;101432.12;4476384;31;32506;-86
2023/02/05 03:20:49;;;;;;;0.15;0.15;;;;;;;1.66;50.12;101435.72;4459899;32;32715;-88
2023/02/05 03:23:17;;;;;;;0.00;0.00;;;;;;;1.53;50.44;101431.13;4459196;32;33522;-88
2023/02/05 03:25:46;;;;;;;0.00;0.00;;;;;;;1.82;49.54;101443.81;4453073;32;34455;-88
2023/02/05 03:28:15;;;;;;;0.00;0.00;;;;;;;1.79;49.58;101440.28;4448778;32;32702;-88
2023/02/05 03:31:00;;;;;;;0.00;0.00;;;;;;;1.47;50.59;101447.53;4442996;32;33226;-88
2023/02/05 03:33:38;;;;;;;0.40;0.40;;;;;;;1.67;50.16;101455.72;4417325;32;33416;-88
2023/02/05 03:36:29;;;;;;;7.57;2.65;;;;;;;1.66;50.01;101459.16;4462159;32;33928;-88
2023/02/05 03:39:35;;;;;;;0.00;0.00;;;;;;;1.56;50.02;101466.75;4437635;32;32879;-88
2023/02/05 03:42:12;;;;;;;0.00;0.00;;;;;;;1.38;50.83;101475.97;4450260;32;32636;-88
2023/02/05 03:44:55;;;;;;;0.00;0.00;;;;;;;1.39;50.73;101471.63;4428162;32;33011;-88
2023/02/05 03:47:37;;;;;;;0.00;0.00;;;;;;;1.49;50.05;101471.84;4457621;32;33372;-88
2023/02/05 03:50:36;;;;;;;0.00;0.00;;;;;;;0.94;51.71;101475.00;4463277;32;33510;-88
2023/02/05 03:53:14;;;;;;;0.00;0.00;;;;;;;1.28;50.38;101477.50;4448848;32;33034;-87
2023/02/05 03:55:46;;;;;;;0.00;0.00;;;;;;;1.45;49.90;101471.75;4454318;32;33547;-87
2023/02/05 03:58:18;;;;;;;0.00;0.00;;;;;;;1.59;49.25;101474.63;4446218;32;33131;-87
2023/02/05 04:00:47;;;;;;;0.08;0.08;;;;;;;1.47;49.71;101478.75;4463580;32;33322;-87
2023/02/05 04:03:15;;;;;;;0.00;0.00;;;;;;;1.57;49.00;101479.81;4439874;32;32755;-87
2023/02/05 04:05:43;;;;;;;0.00;0.00;;;;;;;1.76;48.44;101481.94;4438214;32;33066;-87
2023/02/05 04:08:12;;;;;;;0.00;0.00;;;;;;;1.56;48.97;101482.38;4437931;32;33337;-88
2023/02/05 04:10:41;;;;;;;0.10;0.10;;;;;;;1.67;49.10;101480.87;4422574;32;33489;-87
2023/02/05 04:13:10;;;;;;;0.00;0.00;;;;;;;1.82;48.11;101485.50;4438410;32;32198;-87
2023/02/05 04:15:42;;;;;;;4.05;1.70;;;;;;;1.86;48.38;101488.19;4450737;32;33413;-87
2023/02/05 04:18:10;;;;;;;0.75;0.45;;;;;;;1.86;47.87;101489.91;4442885;32;34206;-87
2023/02/05 04:20:38;;;;;;;0.00;0.00;;;;;;;1.88;47.81;101485.59;4441648;32;33484;-87
2023/02/05 04:23:07;;;;;;;0.25;0.25;;;;;;;1.76;47.91;101491.47;4459117;32;32153;-85
2023/02/05 04:25:38;;;;;;;0.00;0.00;;;;;;;1.92;48.10;101497.84;4448629;32;32767;-84
2023/02/05 04:28:11;;;;;;;0.00;0.00;;;;;;;1.99;47.81;101504.91;4444070;32;33563;-85
2023/02/05 04:30:39;;;;;;;0.20;0.20;;;;;;;2.05;47.82;101499.81;4453703;32;33409;-86
2023/02/05 04:33:08;;;;;;;0.00;0.00;;;;;;;2.08;47.32;101504.19;4448300;32;33960;-84
2023/02/05 04:35:37;;;;;;;0.00;0.00;;;;;;;1.95;48.27;101508.31;4450269;32;33065;-84
2023/02/05 04:38:05;;;;;;;0.00;0.00;;;;;;;2.05;47.68;101508.50;4461794;32;33182;-84
2023/02/05 04:40:34;;;;;;;0.00;0.00;;;;;;;2.18;47.32;101506.09;4480132;32;33415;-84
2023/02/05 04:43:02;;;;;;;0.00;0.00;;;;;;;2.17;47.12;101506.97;4477642;31;33738;-84
2023/02/05 04:45:32;;;;;;;0.08;0.08;;;;;;;2.00;47.30;101517.09;4454176;32;33788;-86
2023/02/05 04:48:01;;;;;;;0.00;0.00;;;;;;;2.03;47.16;101515.41;4483913;31;33370;-86
2023/02/05 04:50:28;;;;;;;0.00;0.00;;;;;;;1.84;47.64;101520.25;4451393;31;32606;-87
2023/02/05 04:52:56;;;;;;;0.10;0.10;;;;;;;1.79;47.77;101526.25;4453326;31;32912;-87
2023/02/05 04:55:24;;;;;;;0.00;0.00;;;;;;;1.67;47.92;101535.56;4460867;32;34638;-87
2023/02/05 04:57:52;;;;;;;0.05;0.05;;;;;;;1.70;48.09;101528.66;4447907;32;34171;-85
2023/02/05 05:00:20;;;;;;;0.00;0.00;;;;;;;1.60;47.97;101537.12;4464661;32;33733;-84
2023/02/05 05:02:48;;;;;;;0.10;0.10;;;;;;;1.44;48.77;101535.06;4457246;32;33933;-84
2023/02/05 05:05:17;;;;;;;0.00;0.00;;;;;;;1.53;48.38;101532.66;4456813;32;32572;-84
2023/02/05 05:07:45;;;;;;;0.00;0.00;;;;;;;1.50;48.34;101543.00;4444004;32;33117;-84
2023/02/05 05:10:15;;;;;;;0.00;0.00;;;;;;;1.62;47.82;101540.66;4458887;32;33038;-83
2023/02/05 05:12:43;;;;;;;0.00;0.00;;;;;;;1.62;47.56;101535.47;4444109;32;32830;-84
2023/02/05 05:15:14;;;;;;;0.00;0.00;;;;;;;1.55;47.43;101543.97;4457450;32;34114;-84
2023/02/05 05:17:46;;;;;;;0.00;0.00;;;;;;;1.47;47.54;101555.94;4456387;32;35566;-83
2023/02/05 05:20:14;;;;;;;0.00;0.00;;;;;;;1.58;47.39;101554.47;4456313;32;33007;-83
2023/02/05 05:22:43;;;;;;;0.00;0.00;;;;;;;1.68;47.09;101556.41;4457039;32;34605;-83
2023/02/05 05:25:11;;;;;;;0.17;0.17;;;;;;;1.74;46.83;101561.72;4447910;32;33121;-83
2023/02/05 05:27:39;;;;;;;0.20;0.20;;;;;;;1.69;46.89;101568.56;4445144;32;34899;-84
2023/02/05 05:30:08;;;;;;;0.52;0.52;;;;;;;1.59;46.40;101564.03;4439555;32;34168;-84
2023/02/05 05:32:36;;;;;;;1.25;0.75;;;;;;;1.69;46.63;101573.78;4448421;32;33488;-84
2023/02/05 05:35:07;;;;;;;0.00;0.00;;;;;;;1.69;46.36;101570.31;4448533;32;33571;-84
2023/02/05 05:37:35;;;;;;;0.03;0.03;;;;;;;1.56;46.95;101581.28;4446576;32;33876;-84
2023/02/05 05:45:40;;;;;;;0.30;0.30;;;;;;;1.78;46.49;101584.38;4451229;32;33374;-84
2023/02/05 05:48:10;;;;;;;0.00;0.00;;;;;;;1.85;46.37;101579.28;4463590;32;34147;-84
2023/02/05 05:50:42;;;;;;;0.00;0.00;;;;;;;1.70;46.68;101580.75;4441056;32;33302;-84
2023/02/05 05:53:11;;;;;;;0.00;0.00;;;;;;;1.67;46.81;101578.09;4450239;32;33087;-84
2023/02/05 05:55:39;;;;;;;0.00;0.00;;;;;;;1.71;46.56;101587.72;4452189;32;33385;-84
2023/02/05 05:58:08;;;;;;;0.25;0.25;;;;;;;1.67;46.75;101591.12;4462093;32;34387;-84
2023/02/05 06:00:38;;;;;;;0.00;0.00;;;;;;;1.59;46.87;101586.59;4447941;32;33507;-85
2023/02/05 06:03:12;;;;;;;0.00;0.00;;;;;;;1.58;46.83;101590.91;4463173;32;34597;-85
2023/02/05 06:05:41;;;;;;;0.00;0.00;;;;;;;1.68;46.52;101597.19;4448120;32;33383;-84
2023/02/05 06:08:09;;;;;;;0.00;0.00;;;;;;;1.56;47.09;101600.41;4438672;32;32490;-85
2023/02/05 06:10:37;;;;;;;0.00;0.00;;;;;;;1.61;46.75;101611.78;4439507;32;32863;-85
2023/02/05 06:13:06;;;;;;;0.00;0.00;;;;;;;1.72;46.62;101615.53;4435194;32;32426;-85
2023/02/05 06:15:36;;;;;;;0.00;0.00;;;;;;;1.73;46.09;101617.28;4460689;32;33456;-86
2023/02/05 06:18:05;;;;;;;0.00;0.00;;;;;;;1.68;46.51;101612.81;4464886;32;34362;-86
2023/02/05 06:20:34;;;;;;;0.00;0.00;;;;;;;1.78;45.95;101626.06;4436979;32;33176;-86
2023/02/05 06:23:07;;;;;;;0.25;0.25;;;;;;;1.78;46.11;101625.19;4450099;32;32661;-86
2023/02/05 06:25:36;;;;;;;0.00;0.00;;;;;;;1.89;45.19;101622.78;4457516;31;34716;-85
2023/02/05 06:28:06;;;;;;;1.65;0.80;;;;;;;1.95;45.05;101616.00;4485472;31;33870;-85
2023/02/05 06:30:34;;;;;;;0.68;0.62;;;;;;;1.86;45.31;101609.72;4472775;31;33158;-86
2023/02/05 06:35:40;;;;;;;0.00;0.00;;;;;;;1.79;44.86;101617.41;4473529;31;33095;-86
2023/02/05 06:38:11;;;;;;;0.00;0.00;;;;;;;1.66;45.04;101620.59;4470606;31;33721;-87
2023/02/05 06:40:41;;;;;;;0.10;0.10;;;;;;;1.73;44.59;101626.81;4473345;31;34142;-87
2023/02/05 06:43:13;;;;;;;0.08;0.08;;;;;;;1.61;44.49;101632.63;4472604;31;32480;-87
2023/02/05 06:45:44;;;;;;;2.72;1.77;;;;;;;1.48;45.05;101634.09;4456458;31;32891;-87
2023/02/05 06:48:15;;;;;;;0.50;0.50;;;;;;;1.32;45.28;101638.91;4468573;31;33822;-87
2023/02/05 06:50:46;;;;;;;0.57;0.57;;;;;;;1.46;45.06;101627.06;4470055;31;32174;-87
2023/02/05 06:53:15;;;;;;;0.93;0.93;;;;;;;1.44;45.22;101628.78;4464696;31;32837;-87
2023/02/05 06:55:46;;;;;;;1.95;0.52;;;;;;;1.57;44.87;101642.94;4467900;31;32999;-87
2023/02/05 06:58:15;;;;;;;0.00;0.00;;;;;;;1.56;44.83;101639.44;4468690;31;33224;-87
2023/02/05 07:00:48;;;;;;;0.00;0.00;;;;;;;1.50;45.00;101652.34;4454890;31;32478;-87
2023/02/05 07:03:18;;;;;;;0.15;0.15;;;;;;;1.54;44.49;101648.97;4455579;31;31295;-87
2023/02/05 07:05:51;;;;;;;0.00;0.00;;;;;;;1.48;45.00;101651.44;4463100;31;34014;-87
2023/02/05 07:08:26;;;;;;;0.25;0.25;;;;;;;1.53;45.65;101655.03;4468587;31;36520;-87
2023/02/05 07:11:02;;;;;;;0.37;0.37;;;;;;;1.27;46.32;101657.88;4465453;31;30500;-87
2023/02/05 07:13:31;;;;;;;0.00;0.00;;;;;;;1.63;45.01;101662.19;4459191;31;32325;-89
2023/02/05 07:16:09;;;;;;;0.20;0.20;;;;;;;1.94;43.92;101653.31;4482113;31;34445;-89
2023/02/05 07:18:44;;;;;;;1.95;0.47;;;;;;;1.91;44.01;101660.19;4470512;31;34865;-88
2023/02/05 07:21:15;;;;;;;0.00;0.00;;;;;;;1.95;43.36;101655.09;4469830;31;32778;-89
2023/02/05 07:23:54;;;;;;;0.73;0.22;;;;;;;2.02;43.12;101658.69;4457820;31;33828;-89
2023/02/05 07:26:22;;;;;;;0.10;0.10;;;;;;;1.86;43.92;101660.09;4432357;32;33527;-89
2023/02/05 07:28:51;;;;;;;0.00;0.00;;;;;;;1.65;44.83;101670.03;4437668;32;32445;-88
2023/02/05 07:36:41;;;;;;;0.57;0.52;;;;;;;1.68;45.92;101681.41;4445578;32;34356;-88
2023/02/05 07:39:13;;;;;;;0.93;0.93;;;;;;;1.75;46.13;101688.50;4449365;32;33919;-90
2023/02/05 07:41:40;;;;;;;0.32;0.32;;;;;;;1.91;45.18;101686.25;4459816;32;33514;-88
2023/02/05 07:44:20;;;;;;;0.30;0.30;;;;;;;1.90;45.08;101687.06;4457459;32;34927;-88
2023/02/05 07:46:54;;;;;;;0.37;0.37;;;;;;;1.90;45.06;101681.84;4457901;32;33341;-89
2023/02/05 07:49:29;;;;;;;0.32;0.32;;;;;;;2.02;45.02;101688.22;4447934;32;34917;-87
2023/02/05 07:52:02;;;;;;;0.00;0.00;;;;;;;2.11;44.55;101677.13;4438997;32;32466;-88
2023/02/05 07:54:31;;;;;;;0.30;0.30;;;;;;;2.19;44.21;101680.78;4440594;32;32463;-88
2023/02/05 07:57:08;;;;;;;0.08;0.08;;;;;;;2.38;44.30;101681.16;4433561;32;33115;-88
2023/02/05 07:59:36;;;;;;;0.00;0.00;;;;;;;2.70;42.08;101676.53;4432625;32;35978;-88
2023/02/05 08:02:05;;;;;;;0.10;0.10;;;;;;;2.74;41.44;101671.38;4435433;32;32678;-88
2023/02/05 08:04:35;;;;;;;11.88;3.25;;;;;;;2.62;41.57;101670.31;4436972;32;32959;-88
2023/02/05 08:07:04;;;;;;;0.00;0.00;;;;;;;2.45;42.30;101677.78;4452018;32;33330;-87
2023/02/05 08:09:33;;;;;;;0.20;0.20;;;;;;;2.38;43.19;101675.94;4434296;32;31709;-85
2023/02/05 08:12:06;;;;;;;0.00;0.00;;;;;;;2.58;42.45;101668.50;4446605;32;32609;-86
2023/02/05 08:14:39;;;;;;;0.15;0.15;;;;;;;2.68;42.04;101671.28;4445932;32;34518;-85
2023/02/05 08:17:12;;;;;;;0.00;0.00;;;;;;;2.72;41.69;101673.09;4422233;32;33493;-86
2023/02/05 08:19:41;;;;;;;0.10;0.10;;;;;;;2.49;43.14;101657.03;4438059;32;33693;-87
2023/02/05 08:24:50;;;;;;;0.00;0.00;;;;;;;2.43;43.88;101663.87;4449657;31;34322;-85
2023/02/05 08:27:25;;;;;;;0.60;0.37;;;;;;;3.04;41.75;101664.97;4453668;31;34235;-85
2023/02/05 08:29:56;;;;;;;0.00;0.00;;;;;;;3.28;41.28;101654.06;4459803;31;35489;-84
2023/02/05 08:32:26;;;;;;;0.00;0.00;;;;;;;3.37;40.55;101646.38;4452076;31;32958;-85
2023/02/05 08:34:55;;;;;;;0.20;0.20;;;;;;;3.19;41.94;101643.47;4460590;31;33987;-85
2023/02/05 08:37:36;;;;;;;0.03;0.03;;;;;;;3.38;41.78;101642.00;4462354;31;34796;-85
2023/02/05 08:40:06;;;;;;;2.65;2.45;;;;;;;3.11;42.78;101643.31;4449574;31;32748;-85
2023/02/05 08:42:42;;;;;;;0.17;0.17;;;;;;;3.64;40.70;101645.88;4464833;31;35784;-85
2023/02/05 08:45:11;;;;;;;0.00;0.00;;;;;;;3.22;39.76;101646.97;4465418;31;33030;-85
2023/02/05 08:47:53;;;;;;;0.00;0.00;;;;;;;3.19;39.79;101657.37;4465652;31;34380;-85
2023/02/05 08:50:24;;;;;;;1.15;1.15;;;;;;;3.02;40.05;101651.00;4459792;31;32293;-84
2023/02/05 08:52:58;;;;;;;0.00;0.00;;;;;;;2.63;41.60;101659.88;4465224;31;33106;-85
2023/02/05 08:55:30;;;;;;;0.15;0.15;;;;;;;2.67;40.89;101656.50;4466346;31;35903;-85
2023/02/05 08:58:00;;;;;;;0.00;0.00;;;;;;;2.60;41.26;101652.00;4465839;31;33949;-85
2023/02/05 09:00:40;;;;;;;0.62;0.62;;;;;;;2.87;40.36;101655.97;4475535;31;35405;-85
2023/02/05 09:05:44;;;;;;;0.00;0.00;;;;;;;2.86;40.88;101670.75;4460611;31;33450;-84
2023/02/05 09:08:16;;;;;;;0.77;0.47;;;;;;;2.86;41.46;101670.75;4462719;31;33076;-85
2023/02/05 09:10:52;;;;;;;0.00;0.00;;;;;;;3.06;41.07;101671.97;4462575;31;33245;-85
2023/02/05 09:13:25;;;;;;;0.00;0.00;;;;;;;2.93;42.15;101676.94;4462932;31;33048;-85
2023/02/05 09:16:05;;;;;;;0.20;0.20;;;;;;;3.49;40.00;101663.94;4461708;31;33699;-84
2023/02/05 09:18:38;;;;;;;0.30;0.30;;;;;;;3.56;39.43;101668.38;4452765;31;34594;-85
2023/02/05 09:21:16;;;;;;;0.00;0.00;;;;;;;3.50;39.77;101660.47;4465399;31;34622;-85
2023/02/05 09:23:54;;;;;;;0.60;0.60;;;;;;;3.28;38.98;101660.16;4468931;31;32649;-85
2023/02/05 09:26:36;;;;;;;0.00;0.00;;;;;;;3.27;38.96;101668.81;4466629;31;33358;-85
2023/02/05 09:29:18;;;;;;;1.67;0.65;;;;;;;3.14;38.00;101661.66;4457425;31;34702;-84
2023/02/05 09:31:49;;;;;;;2.50;0.82;;;;;;;3.13;38.65;101665.09;4463346;32;34427;-85
2023/02/05 09:34:17;;;;;;;0.00;0.00;;;;;;;3.17;38.31;101666.03;4466714;32;33455;-84
2023/02/05 09:36:46;;;;;;;2.55;0.75;;;;;;;3.04;37.47;101675.41;4477352;31;32914;-84
2023/02/05 09:39:14;;;;;;;0.00;0.00;;;;;;;3.10;37.52;101667.69;4451553;31;34190;-83
2023/02/05 09:42:07;;;;;;;0.00;0.00;;;;;;;3.07;38.09;101665.00;4458032;32;35687;-87
2023/02/05 09:45:06;;;;;;;0.00;0.00;;;;;;;3.02;37.76;101666.66;4487964;31;33823;-87
2023/02/05 09:47:45;;;;;;;0.17;0.17;;;;;;;3.00;37.11;101669.25;4443072;32;33278;-87
2023/02/05 09:55:43;;;;;;;0.10;0.10;;;;;;;3.06;37.16;101673.69;4474151;31;34427;-87
2023/02/05 09:58:31;;;;;;;0.00;0.00;;;;;;;3.41;36.94;101671.63;4463453;32;32503;-87
2023/02/05 10:01:30;;;;;;;0.75;0.75;;;;;;;3.48;36.10;101665.66;4472285;31;34181;-87
2023/02/05 10:04:14;;;;;;;0.00;0.00;;;;;;;3.43;36.25;101663.84;4462409;31;32862;-87
2023/02/05 10:09:59;;;;;;;0.20;0.20;;;;;;;3.67;35.40;101658.97;4491542;31;34470;-87
2023/02/05 10:12:41;;;;;;;0.00;0.00;;;;;;;3.29;38.32;101656.69;4459273;31;34080;-87
2023/02/05 10:15:22;;;;;;;0.00;0.00;;;;;;;3.62;36.97;101652.81;4472569;31;33954;-87
2023/02/05 10:18:27;;;;;;;0.00;0.00;;;;;;;2.89;38.45;101656.84;4484662;31;34310;-86
2023/02/05 10:21:45;;;;;;;0.00;0.00;;;;;;;3.58;37.84;101648.41;4473756;31;34961;-86
2023/02/05 10:24:27;;;;;;;0.30;0.30;;;;;;;3.66;35.68;101652.00;4473428;31;33082;-86
2023/02/05 10:27:06;;;;;;;;;;;;;;;2.59;38.02;101645.03;4470078;32;34442;-85
2023/02/05 10:30:25;;;;;;;0.00;0.00;;;;;;;2.86;38.05;101649.00;4465575;32;33979;-85
2023/02/05 10:33:06;;;;;;;0.00;0.00;;;;;;;2.65;38.09;101645.12;4447731;32;33486;-85
2023/02/05 10:35:45;;;;;;;0.00;0.00;;;;;;;3.06;37.81;101652.81;4457604;32;33350;-85
2023/02/05 10:41:16;;;;;;;0.00;0.00;;;;;;;3.55;37.18;101643.13;4457072;31;32300;-85
2023/02/05 10:44:04;;;;;;;0.15;0.15;;;;;;;3.64;37.08;101640.63;4466238;32;32652;-85
2023/02/05 10:46:50;;;;;;;0.10;0.10;;;;;;;3.55;37.05;101632.69;4444351;31;34112;-85
2023/02/05 10:49:37;;;;;;;0.00;0.00;;;;;;;3.76;36.90;101630.37;4428833;32;33572;-85
2023/02/05 10:52:10;;;;;;;0.00;0.00;;;;;;;3.93;37.53;101632.31;4466556;32;33226;-85
2023/02/05 10:54:53;;;;;;;0.55;0.55;;;;;;;4.10;36.74;101633.41;4451030;32;33056;-85
2023/02/05 10:57:33;;;;;;;0.00;0.00;;;;;;;3.94;36.73;101624.50;4435409;32;32988;-85
2023/02/05 11:00:16;;;;;;;0.00;0.00;;;;;;;3.91;36.92;101621.84;4464841;32;34446;-85
2023/02/05 11:02:53;;;;;;;0.00;0.00;;;;;;;4.06;36.86;101626.37;4447350;32;33589;-85
2023/02/05 11:05:38;;;;;;;0.10;0.10;;;;;;;4.01;36.82;101622.84;4450275;32;33621;-85
2023/02/05 11:08:31;;;;;;;0.00;0.00;;;;;;;4.12;36.52;101629.06;4443309;31;33928;-85
2023/02/05 11:11:07;;;;;;;0.00;0.00;;;;;;;4.12;35.82;101627.31;4455499;32;33009;-85
2023/02/05 11:13:40;;;;;;;0.00;0.00;;;;;;;4.12;35.45;101627.31;4456793;32;33060;-85
2023/02/05 11:16:22;;;;;;;0.03;0.03;;;;;;;4.36;36.43;101612.78;4455410;32;34620;-85
2023/02/05 11:19:12;;;;;;;0.37;0.37;;;;;;;4.83;35.53;101610.63;4457290;32;33777;-85
2023/02/05 11:21:56;;;;;;;0.32;0.32;;;;;;;4.95;33.07;101603.75;4476219;32;35774;-85
2023/02/05 11:27:31;;;;;;;0.00;0.00;;;;;;;4.65;35.33;101607.81;4467080;31;32940;-85
2023/02/05 11:30:40;;;;;;;0.25;0.25;;;;;;;4.72;35.41;101612.28;4467565;31;34722;-85
2023/02/05 11:33:26;;;;;;;0.10;0.10;;;;;;;5.30;33.29;101599.63;4424819;32;35001;-84
2023/02/05 11:36:05;;;;;;;0.25;0.25;;;;;;;5.54;32.65;101598.03;4457067;31;32664;-85
2023/02/05 11:38:47;;;;;;;0.00;0.00;;;;;;;5.67;33.28;101594.62;4453727;31;34081;-84
2023/02/05 11:41:47;;;;;;;0.63;0.63;;;;;;;5.96;31.76;101576.41;4464513;31;34467;-85
2023/02/05 11:44:27;;;;;;;1.25;0.82;;;;;;;6.34;30.68;101568.66;4470675;31;32712;-84
2023/02/05 11:47:07;;;;;;;0.00;0.00;;;;;;;6.40;30.61;101560.78;4466347;31;33466;-84
2023/02/05 11:49:38;;;;;;;0.03;0.03;;;;;;;5.92;32.12;101564.16;4466410;31;33883;-84
2023/02/05 11:52:26;;;;;;;0.10;0.10;;;;;;;5.83;33.05;101558.84;4483662;31;32161;-85
2023/02/05 11:54:56;;;;;;;1.15;0.57;;;;;;;5.68;35.59;101567.53;4454691;31;33779;-85
2023/02/05 11:57:37;;;;;;;0.30;0.30;;;;;;;5.33;34.46;101560.38;4478553;31;30563;-85
2023/02/05 12:00:15;;;;;;;0.00;0.00;;;;;;;4.83;37.08;101563.50;4467303;31;32841;-84
2023/02/05 12:02:52;;;;;;;0.25;0.25;;;;;;;5.53;33.89;101559.59;4467241;31;33620;-84
2023/02/05 12:05:46;;;;;;;4.28;0.98;;;;;;;5.26;33.60;101563.81;4470822;31;34565;-84
2023/02/05 12:08:47;;;;;;;0.00;0.00;;;;;;;5.28;33.57;101556.84;4478662;31;34546;-84
2023/02/05 12:12:15;;;;;;;1.55;0.95;;;;;;;5.02;33.39;101556.66;4466926;31;33802;-84
2023/02/05 12:17:51;;;;;;;1.00;0.62;;;;;;;5.92;31.43;101537.94;4475919;31;34976;-84
2023/02/05 12:20:25;;;;;;;0.40;0.40;;;;;;;5.65;32.13;101533.47;4474972;31;33237;-84
2023/02/05 12:23:08;;;;;;;0.00;0.00;;;;;;;5.46;33.65;101542.09;4480037;31;31671;-84
2023/02/05 12:26:09;;;;;;;0.25;0.20;;;;;;;5.72;34.03;101531.75;4452123;31;34019;-84
2023/02/05 12:28:51;;;;;;;0.13;0.13;;;;;;;6.21;33.51;101529.28;4464267;32;33177;-84
2023/02/05 12:31:47;;;;;;;0.30;0.30;;;;;;;6.57;30.92;101523.22;4474947;32;33973;-84
2023/02/05 12:34:43;;;;;;;0.00;0.00;;;;;;;6.09;32.53;101519.66;4461176;32;35420;-84
2023/02/05 12:37:24;;;;;;;0.00;0.00;;;;;;;5.82;32.42;101516.03;4458071;32;33086;-84
2023/02/05 12:40:13;;;;;;;0.70;0.70;;;;;;;6.23;31.24;101517.06;4471811;32;34669;-84
2023/02/05 12:42:57;;;;;;;0.20;0.20;;;;;;;6.23;31.46;101517.94;4475642;32;33002;-84
2023/02/05 12:46:07;;;;;;;0.00;0.00;;;;;;;6.20;30.77;101517.03;4464056;32;34889;-84